createdAt,value
2022-11-25T00:01:15.973Z,76.11
2022-11-25T00:03:42.332Z,76.29
2022-11-25T00:06:08.679Z,76.50
2022-11-25T00:08:35.034Z,76.57
2022-11-25T00:11:01.402Z,76.69
2022-11-25T00:13:27.808Z,76.48
2022-11-25T00:15:54.164Z,76.44
2022-11-25T00:18:20.601Z,76.43
2022-11-25T00:20:46.965Z,76.52
2022-11-25T00:23:13.300Z,76.47
2022-11-25T00:25:39.622Z,76.43
2022-11-25T00:28:05.994Z,76.17
2022-11-25T00:30:32.363Z,76.42
2022-11-25T00:32:58.782Z,76.28
2022-11-25T00:35:25.165Z,76.15
2022-11-25T00:37:51.512Z,76.03
2022-11-25T00:40:17.866Z,76.02
2022-11-25T00:42:44.313Z,75.90
2022-11-25T00:45:10.597Z,75.71
2022-11-25T00:47:36.936Z,75.74
2022-11-25T00:50:03.277Z,75.99
2022-11-25T00:52:29.620Z,76.10
2022-11-25T00:54:55.984Z,76.25
2022-11-25T00:57:22.400Z,76.19
2022-11-25T00:59:48.760Z,76.36
2022-11-25T01:02:15.155Z,76.43
2022-11-25T01:04:41.440Z,76.35
2022-11-25T01:07:07.786Z,76.41
2022-11-25T01:09:34.147Z,76.23
2022-11-25T01:12:00.519Z,76.35
2022-11-25T01:14:26.833Z,76.31
2022-11-25T01:16:53.260Z,76.28
2022-11-25T01:19:19.579Z,76.16
2022-11-25T01:21:45.966Z,75.79
2022-11-25T01:24:12.288Z,75.94
2022-11-25T01:26:38.702Z,75.89
2022-11-25T01:29:05.060Z,75.79
2022-11-25T01:31:31.493Z,75.90
2022-11-25T01:33:57.769Z,75.91
2022-11-25T01:36:24.112Z,76.02
2022-11-25T01:38:50.433Z,75.95
2022-11-25T01:41:16.818Z,75.90
2022-11-25T01:43:43.172Z,76.00
2022-11-25T01:46:09.566Z,75.93
2022-11-25T01:48:35.839Z,75.91
2022-11-25T01:51:02.226Z,75.72
2022-11-25T01:53:28.541Z,76.03
2022-11-25T01:55:54.878Z,75.79
2022-11-25T01:58:21.249Z,75.04
2022-11-25T02:00:47.657Z,74.49
2022-11-25T02:03:13.987Z,74.47
2022-11-25T02:05:40.325Z,74.31
2022-11-25T02:08:06.641Z,74.37
2022-11-25T02:10:33.027Z,74.28
2022-11-25T02:12:59.340Z,74.13
2022-11-25T02:15:25.685Z,74.30
2022-11-25T02:17:52.025Z,74.23
2022-11-25T02:20:18.415Z,74.23
2022-11-25T02:22:44.727Z,73.44
2022-11-25T02:25:11.125Z,73.53
2022-11-25T02:27:37.455Z,73.78
2022-11-25T02:30:03.834Z,73.43
2022-11-25T02:32:30.381Z,73.81
2022-11-25T02:34:56.760Z,73.30
2022-11-25T02:37:23.073Z,73.38
2022-11-25T02:39:49.458Z,73.22
2022-11-25T02:42:15.808Z,73.05
2022-11-25T02:44:42.265Z,73.04
2022-11-25T02:47:08.620Z,73.07
2022-11-25T02:49:34.990Z,73.18
2022-11-25T02:52:01.350Z,72.87
2022-11-25T02:54:27.676Z,72.44
2022-11-25T02:56:54.055Z,72.34
2022-11-25T02:59:20.386Z,72.48
2022-11-25T03:01:46.775Z,72.58
2022-11-25T03:04:13.151Z,72.56
2022-11-25T03:06:39.500Z,72.81
2022-11-25T03:09:05.838Z,72.98
2022-11-25T03:11:32.158Z,73.03
2022-11-25T03:13:58.544Z,73.49
2022-11-25T03:16:24.930Z,73.98
2022-11-25T03:18:51.312Z,74.04
2022-11-25T03:21:17.675Z,74.19
2022-11-25T03:23:44.052Z,74.44
2022-11-25T03:26:10.400Z,74.57
2022-11-25T03:28:36.816Z,74.71
2022-11-25T03:31:03.166Z,74.83
2022-11-25T03:33:29.501Z,75.28
2022-11-25T03:35:55.830Z,75.37
2022-11-25T03:38:22.163Z,75.80
2022-11-25T03:40:48.548Z,76.13
2022-11-25T03:43:14.872Z,76.23
2022-11-25T03:45:41.332Z,76.33
2022-11-25T03:48:07.573Z,76.73
2022-11-25T03:50:33.930Z,77.37
2022-11-25T03:53:00.269Z,77.64
2022-11-25T03:55:26.630Z,77.82
2022-11-25T03:57:52.969Z,78.10
2022-11-25T04:00:19.334Z,78.49
2022-11-25T04:02:45.761Z,78.83
2022-11-25T04:05:12.058Z,79.06
2022-11-25T04:07:38.515Z,79.02
2022-11-25T04:10:04.820Z,79.13
2022-11-25T04:12:31.207Z,79.46
2022-11-25T04:14:57.560Z,79.72
2022-11-25T04:17:23.895Z,80.01
2022-11-25T04:19:50.250Z,80.08
2022-11-25T04:22:16.588Z,80.33
2022-11-25T04:24:42.907Z,80.61
2022-11-25T04:27:09.305Z,80.55
2022-11-25T04:29:35.639Z,80.52
2022-11-25T04:32:01.993Z,80.65
2022-11-25T04:34:28.349Z,80.73
2022-11-25T04:36:54.727Z,80.74
2022-11-25T04:39:21.054Z,80.93
2022-11-25T04:41:47.395Z,80.91
2022-11-25T04:44:13.714Z,80.87
2022-11-25T04:46:40.129Z,81.03
2022-11-25T04:49:06.442Z,81.37
2022-11-25T04:51:32.833Z,81.41
2022-11-25T04:53:59.154Z,81.44
2022-11-25T04:56:25.497Z,81.41
2022-11-25T04:58:51.851Z,81.30
2022-11-25T05:01:18.266Z,81.21
2022-11-25T05:03:49.618Z,81.31
2022-11-25T05:06:10.928Z,81.22
2022-11-25T05:08:37.238Z,81.12
2022-11-25T05:11:03.668Z,80.78
2022-11-25T05:13:29.973Z,80.39
2022-11-25T05:15:56.310Z,80.23
2022-11-25T05:18:22.668Z,80.35
2022-11-25T05:20:49.147Z,80.35
2022-11-25T05:23:15.429Z,80.07
2022-11-25T05:25:41.766Z,79.92
2022-11-25T05:28:08.087Z,79.66
2022-11-25T05:30:34.519Z,79.38
2022-11-25T05:33:00.780Z,79.33
2022-11-25T05:35:27.155Z,79.15
2022-11-25T05:37:53.518Z,78.80
2022-11-25T05:40:19.892Z,78.27
2022-11-25T05:42:46.223Z,77.95
2022-11-25T05:45:12.684Z,77.50
2022-11-25T05:47:39.009Z,77.34
2022-11-25T05:50:05.341Z,77.32
2022-11-25T05:52:31.698Z,76.93
2022-11-25T05:54:58.027Z,76.87
2022-11-25T05:57:24.341Z,76.55
2022-11-25T05:59:50.724Z,74.96
2022-11-25T06:02:17.116Z,73.83
2022-11-25T06:04:43.456Z,73.28
2022-11-25T06:07:09.907Z,73.42
2022-11-25T06:09:36.174Z,72.93
2022-11-25T06:12:02.619Z,71.90
2022-11-25T06:14:28.983Z,70.85
2022-11-25T06:16:55.318Z,69.86
2022-11-25T06:19:21.707Z,70.24
2022-11-25T06:21:48.051Z,70.64
2022-11-25T06:24:14.404Z,71.04
2022-11-25T06:26:40.781Z,71.39
2022-11-25T06:29:07.144Z,71.72
2022-11-25T06:31:33.627Z,72.21
2022-11-25T06:33:59.915Z,72.50
2022-11-25T06:36:26.335Z,72.69
2022-11-25T06:38:52.694Z,72.36
2022-11-25T06:41:19.021Z,72.23
2022-11-25T06:43:45.378Z,72.12
2022-11-25T06:46:11.869Z,71.82
2022-11-25T06:48:38.105Z,72.13
2022-11-25T06:51:04.478Z,71.92
2022-11-25T06:53:30.844Z,72.00
2022-11-25T06:55:57.210Z,71.80
2022-11-25T06:58:35.538Z,72.17
2022-11-25T07:00:49.997Z,72.03
2022-11-25T07:03:16.372Z,72.13
2022-11-25T07:05:42.739Z,71.78
2022-11-25T07:08:09.112Z,72.21
2022-11-25T07:10:35.497Z,72.47
2022-11-25T07:13:01.851Z,72.24
2022-11-25T07:15:28.232Z,72.08
2022-11-25T07:17:54.596Z,71.84
2022-11-25T07:20:20.914Z,71.62
2022-11-25T07:22:47.271Z,71.24
2022-11-25T07:25:13.598Z,71.21
2022-11-25T07:27:39.930Z,71.09
2022-11-25T07:32:32.615Z,70.16
2022-11-25T07:34:58.952Z,69.95
2022-11-25T07:37:25.306Z,70.34
2022-11-25T07:39:51.651Z,70.18
2022-11-25T07:42:18.010Z,69.92
2022-11-25T07:44:44.360Z,70.31
2022-11-25T07:47:10.715Z,69.91
2022-11-25T07:49:37.211Z,68.53
2022-11-25T07:52:03.446Z,66.76
2022-11-25T07:54:29.792Z,63.94
2022-11-25T07:56:56.197Z,63.66
2022-11-25T07:59:22.609Z,62.63
2022-11-25T08:01:48.986Z,62.16
2022-11-25T08:04:19.992Z,60.95
2022-11-25T08:06:41.697Z,60.41
2022-11-25T08:09:08.039Z,59.69
2022-11-25T08:11:34.446Z,58.76
2022-11-25T08:14:00.824Z,58.18
2022-11-25T08:16:27.272Z,57.58
2022-11-25T08:18:53.572Z,57.35
2022-11-25T08:21:19.896Z,57.40
2022-11-25T08:23:46.264Z,55.70
2022-11-25T08:26:12.701Z,55.86
2022-11-25T08:28:39.031Z,54.87
2022-11-25T08:31:05.649Z,54.32
2022-11-25T08:33:31.938Z,54.56
2022-11-25T08:35:58.258Z,54.62
2022-11-25T08:38:24.597Z,54.08
2022-11-25T08:40:50.962Z,54.00
2022-11-25T08:43:17.311Z,54.38
2022-11-25T08:45:43.638Z,54.71
2022-11-25T08:48:10.067Z,54.79
2022-11-25T08:50:36.387Z,53.69
2022-11-25T08:53:02.734Z,53.42
2022-11-25T08:55:29.078Z,53.72
2022-11-25T08:57:55.461Z,52.53
2022-11-25T09:00:21.828Z,52.00
2022-11-25T09:02:48.279Z,53.59
2022-11-25T09:05:14.625Z,51.40
2022-11-25T09:07:41.074Z,51.95
2022-11-25T09:10:07.283Z,51.47
2022-11-25T09:12:33.674Z,51.44
2022-11-25T09:15:00.038Z,50.62
2022-11-25T09:17:26.408Z,50.41
2022-11-25T09:19:52.728Z,50.90
2022-11-25T09:22:19.075Z,52.05
2022-11-25T09:24:45.404Z,52.09
2022-11-25T09:27:11.790Z,50.93
2022-11-25T09:29:38.282Z,50.99
2022-11-25T09:32:04.468Z,51.06
2022-11-25T09:34:30.830Z,50.67
2022-11-25T09:36:57.302Z,52.21
2022-11-25T09:39:23.667Z,51.29
2022-11-25T09:41:50.022Z,49.45
2022-11-25T09:44:16.356Z,51.07
2022-11-25T09:46:42.847Z,51.83
2022-11-25T09:49:09.124Z,50.40
2022-11-25T09:51:35.461Z,49.56
2022-11-25T09:54:01.795Z,48.88
2022-11-25T09:56:28.182Z,49.24
2022-11-25T09:58:54.521Z,49.52
2022-11-25T10:01:20.915Z,49.41
2022-11-25T10:03:47.394Z,49.86
2022-11-25T10:06:13.729Z,49.52
2022-11-25T10:08:40.003Z,49.86
2022-11-25T10:11:06.344Z,49.56
2022-11-25T10:13:32.669Z,50.06
2022-11-25T10:15:59.147Z,49.28
2022-11-25T10:18:25.411Z,49.44
2022-11-25T10:20:51.744Z,49.79
2022-11-25T10:23:18.145Z,50.45
2022-11-25T10:25:44.495Z,50.63
2022-11-25T10:28:10.860Z,49.51
2022-11-25T10:30:37.193Z,50.61
2022-11-25T10:33:03.557Z,49.36
2022-11-25T10:35:29.910Z,49.09
2022-11-25T10:37:56.278Z,49.65
2022-11-25T10:40:22.622Z,50.18
2022-11-25T10:42:48.978Z,49.32
2022-11-25T10:45:15.327Z,48.15
2022-11-25T10:47:41.673Z,47.65
2022-11-25T10:50:07.994Z,49.06
2022-11-25T10:52:34.353Z,48.10
2022-11-25T10:55:00.707Z,47.86
2022-11-25T10:57:27.032Z,48.30
2022-11-25T10:59:53.423Z,48.05
2022-11-25T11:02:19.805Z,48.29
2022-11-25T11:04:46.081Z,51.56
2022-11-25T11:07:12.484Z,53.73
2022-11-25T11:09:38.801Z,54.39
2022-11-25T11:12:05.151Z,52.08
2022-11-25T11:14:31.563Z,52.71
2022-11-25T11:16:57.920Z,52.00
2022-11-25T11:19:24.293Z,52.21
2022-11-25T11:21:50.648Z,51.83
2022-11-25T11:24:16.991Z,52.67
2022-11-25T11:26:43.356Z,52.11
2022-11-25T11:29:13.938Z,52.35
2022-11-25T11:31:36.161Z,52.97
2022-11-25T11:34:02.454Z,53.55
2022-11-25T11:36:28.810Z,52.58
2022-11-25T11:38:55.203Z,53.27
2022-11-25T11:41:21.519Z,54.14
2022-11-25T11:43:47.905Z,54.78
2022-11-25T11:46:14.273Z,54.68
2022-11-25T11:48:40.571Z,54.75
2022-11-25T11:51:06.898Z,53.98
2022-11-25T11:53:33.237Z,53.34
2022-11-25T11:56:32.998Z,54.25
2022-11-25T11:58:25.952Z,53.91
2022-11-25T12:00:52.273Z,53.41
2022-11-25T12:03:18.726Z,53.56
2022-11-25T12:05:44.984Z,53.99
2022-11-25T12:08:11.317Z,53.76
2022-11-25T12:10:37.681Z,53.39
2022-11-25T12:13:04.021Z,53.09
2022-11-25T12:15:30.396Z,53.16
2022-11-25T12:17:56.731Z,52.50
2022-11-25T12:20:23.169Z,53.02
2022-11-25T12:22:49.433Z,53.44
2022-11-25T12:25:15.811Z,53.32
2022-11-25T12:27:42.197Z,52.94
2022-11-25T12:30:08.577Z,53.66
2022-11-25T12:32:34.957Z,53.81
2022-11-25T12:35:01.382Z,53.96
2022-11-25T12:37:27.750Z,53.67
2022-11-25T12:39:54.111Z,53.37
2022-11-25T12:42:20.492Z,53.63
2022-11-25T12:44:46.856Z,53.03
2022-11-25T12:47:13.249Z,53.68
2022-11-25T12:49:39.612Z,55.14
2022-11-25T12:52:05.984Z,56.11
2022-11-25T12:54:32.310Z,56.18
2022-11-25T12:56:58.694Z,55.39
2022-11-25T12:59:25.061Z,56.15
2022-11-25T13:01:51.591Z,55.20
2022-11-25T13:04:17.829Z,55.27
2022-11-25T13:06:44.212Z,54.46
2022-11-25T13:09:10.550Z,54.86
2022-11-25T13:11:37.297Z,55.40
2022-11-25T13:14:03.569Z,55.11
2022-11-25T13:16:30.087Z,54.44
2022-11-25T13:18:55.982Z,54.65
2022-11-25T13:21:22.393Z,54.43
2022-11-25T13:23:49.531Z,55.25
2022-11-25T13:26:15.116Z,56.45
2022-11-25T13:28:41.443Z,56.45
2022-11-25T13:31:07.848Z,55.89
2022-11-25T13:33:34.164Z,56.34
2022-11-25T13:36:00.551Z,57.52
2022-11-25T13:38:26.867Z,57.79
2022-11-25T13:40:53.209Z,58.40
2022-11-25T13:43:19.587Z,59.14
2022-11-25T13:45:45.992Z,58.97
2022-11-25T13:48:12.275Z,59.76
2022-11-25T13:51:03.421Z,60.26
2022-11-25T13:53:05.049Z,60.58
2022-11-25T13:55:31.399Z,60.56
2022-11-25T13:57:57.744Z,60.17
2022-11-25T14:00:24.142Z,60.57
2022-11-25T14:02:50.586Z,60.73
2022-11-25T14:05:16.870Z,60.87
2022-11-25T14:07:43.279Z,61.11
2022-11-25T14:10:09.600Z,61.37
2022-11-25T14:12:35.946Z,61.83
2022-11-25T14:15:02.280Z,62.18
2022-11-25T14:17:28.684Z,62.62
2022-11-25T14:19:55.294Z,62.71
2022-11-25T14:22:21.387Z,63.04
2022-11-25T14:24:47.777Z,63.59
2022-11-25T14:27:14.186Z,63.94
2022-11-25T14:29:40.563Z,64.06
2022-11-25T14:32:06.962Z,64.41
2022-11-25T14:34:33.289Z,64.86
2022-11-25T14:36:59.638Z,64.88
2022-11-25T14:39:26.030Z,65.18
2022-11-25T14:41:52.384Z,65.47
2022-11-25T14:44:18.754Z,65.48
2022-11-25T14:46:45.142Z,66.02
2022-11-25T14:49:30.785Z,66.15
2022-11-25T14:51:37.835Z,66.42
2022-11-25T14:54:04.219Z,66.66
2022-11-25T14:56:30.555Z,66.94
2022-11-25T14:58:56.937Z,67.39
2022-11-25T15:01:23.290Z,67.79
2022-11-25T15:03:49.729Z,67.69
2022-11-25T15:06:16.060Z,67.71
2022-11-25T15:08:42.362Z,67.78
2022-11-25T15:11:08.685Z,68.23
2022-11-25T15:13:35.058Z,68.55
2022-11-25T15:16:01.469Z,68.93
2022-11-25T15:18:27.810Z,69.53
2022-11-25T15:20:54.159Z,69.44
2022-11-25T15:23:20.554Z,69.43
2022-11-25T15:25:46.907Z,69.66
2022-11-25T15:28:13.332Z,69.28
2022-11-25T15:30:39.703Z,69.21
2022-11-25T15:33:06.028Z,69.58
2022-11-25T15:35:32.400Z,69.76
2022-11-25T15:37:58.819Z,69.78
2022-11-25T15:40:25.096Z,69.89
2022-11-25T15:42:51.447Z,70.20
2022-11-25T15:45:17.771Z,70.07
2022-11-25T15:47:44.225Z,70.07
2022-11-25T15:50:10.496Z,70.08
2022-11-25T15:52:36.883Z,69.98
2022-11-25T15:55:03.241Z,69.99
2022-11-25T15:57:29.610Z,69.40
2022-11-25T15:59:56.000Z,69.30
2022-11-25T16:02:22.444Z,69.11
2022-11-25T16:04:48.736Z,69.22
2022-11-25T16:07:15.144Z,69.29
2022-11-25T16:09:41.474Z,69.30
2022-11-25T16:12:07.818Z,68.91
2022-11-25T16:14:34.211Z,68.98
2022-11-25T16:17:00.666Z,69.09
2022-11-25T16:19:26.863Z,68.96
2022-11-25T16:21:53.536Z,69.11
2022-11-25T16:24:19.927Z,69.03
2022-11-25T16:26:46.309Z,69.08
2022-11-25T16:29:12.609Z,69.08
2022-11-25T16:31:38.993Z,68.95
2022-11-25T16:34:05.337Z,68.97
2022-11-25T16:36:31.721Z,69.08
2022-11-25T16:38:58.060Z,68.98
2022-11-25T16:41:24.441Z,69.08
2022-11-25T16:43:50.827Z,69.13
2022-11-25T16:46:17.216Z,69.19
2022-11-25T16:48:43.549Z,69.28
2022-11-25T16:51:09.870Z,69.32
2022-11-25T16:53:36.290Z,69.19
2022-11-25T16:56:02.706Z,69.11
2022-11-25T16:58:29.049Z,68.96
2022-11-25T17:00:55.412Z,68.94
2022-11-25T17:03:21.763Z,68.93
2022-11-25T17:05:48.148Z,69.18
2022-11-25T17:08:14.558Z,69.19
2022-11-25T17:10:40.813Z,69.38
2022-11-25T17:13:07.206Z,69.38
2022-11-25T17:15:33.688Z,69.36
2022-11-25T17:17:59.936Z,69.36
2022-11-25T17:20:26.259Z,69.75
2022-11-25T17:22:52.602Z,69.66
2022-11-25T17:25:18.916Z,69.60
2022-11-25T17:27:45.316Z,69.65
2022-11-25T17:30:11.630Z,69.75
2022-11-25T17:32:37.986Z,69.97
2022-11-25T17:35:04.363Z,70.10
2022-11-25T17:37:30.730Z,70.28
2022-11-25T17:39:57.110Z,70.31
2022-11-25T17:42:23.448Z,70.43
2022-11-25T17:44:53.064Z,70.51
2022-11-25T17:47:16.165Z,70.48
2022-11-25T17:49:42.558Z,70.39
2022-11-25T17:52:08.891Z,70.73
2022-11-25T17:54:35.683Z,70.82
2022-11-25T17:57:01.623Z,70.99
2022-11-25T17:59:27.982Z,71.04
2022-11-25T18:01:54.429Z,71.10
2022-11-25T18:04:20.732Z,71.36
2022-11-25T18:06:47.083Z,71.50
2022-11-25T18:09:13.408Z,71.48
2022-11-25T18:11:42.627Z,71.40
2022-11-25T18:14:06.075Z,71.46
2022-11-25T18:16:32.468Z,71.50
2022-11-25T18:18:58.757Z,71.63
2022-11-25T18:21:25.140Z,71.66
2022-11-25T18:23:51.457Z,71.73
2022-11-25T18:26:17.886Z,71.82
2022-11-25T18:28:44.227Z,71.76
2022-11-25T18:31:10.688Z,71.80
2022-11-25T18:33:36.992Z,72.01
2022-11-25T18:36:03.365Z,72.22
2022-11-25T18:38:29.680Z,72.39
2022-11-25T18:40:56.033Z,72.37
2022-11-25T18:43:22.388Z,72.46
2022-11-25T18:45:48.799Z,72.60
2022-11-25T18:48:15.084Z,72.61
2022-11-25T18:50:41.465Z,72.83
2022-11-25T18:53:07.826Z,73.00
2022-11-25T18:55:34.208Z,73.20
2022-11-25T18:58:00.518Z,73.45
2022-11-25T19:00:34.138Z,73.63
2022-11-25T19:02:53.245Z,73.63
2022-11-25T19:05:19.605Z,73.59
2022-11-25T19:07:46.046Z,73.44
2022-11-25T19:10:13.888Z,73.38
2022-11-25T19:12:38.592Z,73.36
2022-11-25T19:15:04.931Z,73.43
2022-11-25T19:17:31.330Z,73.25
2022-11-25T19:19:57.732Z,73.12
2022-11-25T19:22:24.101Z,73.18
2022-11-25T19:24:50.483Z,73.12
2022-11-25T19:27:16.869Z,73.22
2022-11-25T19:29:43.264Z,73.38
2022-11-25T19:32:09.709Z,73.60
2022-11-25T19:34:36.450Z,73.82
2022-11-25T19:37:02.312Z,73.68
2022-11-25T19:39:28.692Z,73.80
2022-11-25T19:41:55.004Z,73.81
2022-11-25T19:44:21.395Z,74.16
2022-11-25T19:47:13.703Z,74.10
2022-11-25T19:49:14.129Z,74.22
2022-11-25T19:51:40.518Z,74.28
2022-11-25T19:54:06.850Z,74.53
2022-11-25T19:56:33.221Z,74.79
2022-11-25T19:58:59.556Z,74.88
2022-11-25T20:01:25.986Z,75.12
2022-11-25T20:03:52.261Z,75.23
2022-11-25T20:06:18.675Z,75.30
2022-11-25T20:08:45.047Z,75.61
2022-11-25T20:11:11.425Z,75.70
2022-11-25T20:13:37.773Z,75.85
2022-11-25T20:16:04.286Z,76.03
2022-11-25T20:18:30.479Z,76.08
2022-11-25T20:20:56.793Z,76.20
2022-11-25T20:23:23.159Z,76.44
2022-11-25T20:25:49.586Z,76.42
2022-11-25T20:28:15.994Z,76.41
2022-11-25T20:30:42.299Z,76.45
2022-11-25T20:33:08.679Z,76.49
2022-11-25T20:35:35.044Z,76.58
2022-11-25T20:38:01.383Z,76.86
2022-11-25T20:40:27.737Z,76.98
2022-11-25T20:42:54.114Z,77.33
2022-11-25T20:45:20.466Z,77.37
2022-11-25T20:47:46.844Z,77.66
2022-11-25T20:50:13.249Z,77.63
2022-11-25T20:52:39.982Z,77.68
2022-11-25T20:55:06.300Z,77.54
2022-11-25T20:57:32.633Z,77.65
2022-11-25T20:59:58.962Z,77.59
2022-11-25T21:02:25.382Z,77.73
2022-11-25T21:04:51.685Z,77.56
2022-11-25T21:07:18.139Z,77.62
2022-11-25T21:09:44.398Z,77.73
2022-11-25T21:12:14.615Z,77.87
2022-11-25T21:14:37.257Z,78.16
2022-11-25T21:17:03.431Z,77.98
2022-11-25T21:19:29.782Z,77.95
2022-11-25T21:21:56.157Z,78.01
2022-11-25T21:24:22.509Z,77.86
2022-11-25T21:26:48.837Z,77.84
2022-11-25T21:29:15.351Z,78.07
2022-11-25T21:31:41.753Z,78.14
2022-11-25T21:34:08.087Z,78.34
2022-11-25T21:36:34.552Z,78.56
2022-11-25T21:39:00.929Z,78.51
2022-11-25T21:41:27.277Z,78.51
2022-11-25T21:43:53.596Z,78.91
2022-11-25T21:46:20.011Z,79.73
2022-11-25T21:48:46.438Z,78.96
2022-11-25T21:51:12.758Z,78.78
2022-11-25T21:53:39.082Z,78.86
2022-11-25T21:56:05.652Z,78.94
2022-11-25T21:58:31.998Z,79.24
2022-11-25T22:00:58.374Z,79.22
2022-11-25T22:03:24.746Z,79.30
2022-11-25T22:05:51.064Z,79.41
2022-11-25T22:08:17.366Z,79.51
2022-11-25T22:10:43.741Z,79.85
2022-11-25T22:13:10.098Z,80.00
2022-11-25T22:15:36.444Z,80.05
2022-11-25T22:18:02.826Z,79.98
2022-11-25T22:20:29.202Z,79.96
2022-11-25T22:22:55.574Z,80.11
2022-11-25T22:25:21.954Z,80.33
2022-11-25T22:27:48.299Z,80.36
2022-11-25T22:30:14.676Z,80.37
2022-11-25T22:32:40.993Z,80.43
2022-11-25T22:35:07.336Z,80.56
2022-11-25T22:37:33.721Z,80.58
2022-11-25T22:40:00.056Z,80.95
2022-11-25T22:42:26.375Z,81.05
2022-11-25T22:44:52.718Z,81.05
2022-11-25T22:47:19.103Z,80.88
2022-11-25T22:49:45.441Z,80.76
2022-11-25T22:52:11.804Z,80.76
2022-11-25T22:54:38.274Z,80.62
2022-11-25T22:57:04.479Z,80.45
2022-11-25T22:59:30.855Z,80.47
2022-11-25T23:01:57.180Z,80.62
2022-11-25T23:04:23.506Z,80.53
2022-11-25T23:06:49.843Z,80.50
2022-11-25T23:09:16.232Z,80.36
2022-11-25T23:11:42.546Z,80.45
2022-11-25T23:14:09.013Z,80.21
2022-11-25T23:16:35.376Z,80.12
2022-11-25T23:19:01.677Z,80.12
2022-11-25T23:21:28.015Z,80.23
2022-11-25T23:23:54.392Z,80.30
2022-11-25T23:26:20.709Z,80.30
2022-11-25T23:28:47.054Z,79.87
2022-11-25T23:31:13.440Z,80.15
2022-11-25T23:33:39.751Z,81.00
2022-11-25T23:36:08.803Z,81.13
2022-11-25T23:38:32.415Z,81.75
2022-11-25T23:40:58.741Z,82.30
2022-11-25T23:43:25.121Z,83.00
2022-11-25T23:45:51.523Z,83.29
2022-11-25T23:48:17.820Z,83.52
2022-11-25T23:50:44.140Z,83.86
2022-11-25T23:53:10.484Z,84.22
2022-11-25T23:55:36.905Z,84.75
2022-11-25T23:58:03.275Z,85.21
